createdAt,value
2023-06-11T00:00:24.937Z,38.90
2023-06-11T00:02:51.763Z,39.00
2023-06-11T00:05:18.647Z,39.10
2023-06-11T00:07:45.324Z,39.20
2023-06-11T00:10:11.991Z,39.40
2023-06-11T00:12:38.778Z,39.40
2023-06-11T00:15:08.768Z,39.50
2023-06-11T00:17:35.758Z,39.60
2023-06-11T00:20:02.516Z,39.80
2023-06-11T00:22:29.200Z,39.90
2023-06-11T00:24:55.850Z,39.90
2023-06-11T00:27:22.520Z,40.00
2023-06-11T00:29:49.189Z,40.20
2023-06-11T00:32:15.855Z,40.20
2023-06-11T00:34:42.486Z,40.40
2023-06-11T00:37:09.181Z,40.50
2023-06-11T00:39:35.958Z,40.60
2023-06-11T00:42:02.614Z,40.80
2023-06-11T00:44:29.304Z,40.90
2023-06-11T00:46:57.309Z,41.00
2023-06-11T00:49:24.664Z,41.10
2023-06-11T00:51:51.333Z,41.30
2023-06-11T00:54:18.054Z,41.30
2023-06-11T00:56:44.720Z,41.40
2023-06-11T00:59:12.013Z,41.50
2023-06-11T01:01:43.375Z,41.70
2023-06-11T01:04:13.121Z,41.90
2023-06-11T01:06:39.783Z,41.90
2023-06-11T01:09:06.658Z,41.90
2023-06-11T01:11:33.318Z,42.10
2023-06-11T01:13:59.969Z,42.20
2023-06-11T01:16:44.650Z,42.30
2023-06-11T01:19:34.286Z,42.50
2023-06-11T01:22:09.726Z,43.20
2023-06-11T01:24:44.661Z,42.70
2023-06-11T01:27:22.903Z,43.60
2023-06-11T01:29:49.590Z,42.90
2023-06-11T01:32:18.667Z,42.90
2023-06-11T01:34:45.485Z,43.10
2023-06-11T01:37:12.154Z,43.20
2023-06-11T01:39:39.115Z,43.30
2023-06-11T01:42:06.169Z,43.40
2023-06-11T01:44:32.810Z,43.50
2023-06-11T01:46:59.601Z,43.60
2023-06-11T01:49:26.287Z,43.80
2023-06-11T01:51:52.976Z,43.90
2023-06-11T01:54:19.741Z,44.00
2023-06-11T01:56:46.403Z,44.20
2023-06-11T01:59:13.121Z,44.20
2023-06-11T02:01:39.814Z,44.30
2023-06-11T02:04:06.779Z,44.40
2023-06-11T02:06:33.640Z,44.60
2023-06-11T02:09:00.305Z,44.70
2023-06-11T02:11:26.947Z,44.90
2023-06-11T02:13:53.687Z,45.00
2023-06-11T02:16:20.432Z,45.00
2023-06-11T02:18:47.164Z,45.10
2023-06-11T02:21:13.906Z,45.30
2023-06-11T02:23:40.609Z,45.40
2023-06-11T02:26:07.308Z,45.40
2023-06-11T02:28:33.962Z,45.50
2023-06-11T02:31:00.662Z,45.60
2023-06-11T02:33:27.334Z,45.70
2023-06-11T02:35:54.025Z,45.80
2023-06-11T02:38:20.694Z,45.90
2023-06-11T02:40:47.392Z,46.00
2023-06-11T02:43:14.080Z,46.20
2023-06-11T02:45:40.813Z,46.30
2023-06-11T02:48:07.773Z,46.40
2023-06-11T02:50:34.580Z,46.40
2023-06-11T02:53:01.363Z,46.60
2023-06-11T02:55:28.063Z,46.70
2023-06-11T02:57:54.698Z,46.80
2023-06-11T03:00:21.517Z,46.90
2023-06-11T03:02:48.198Z,47.00
2023-06-11T03:05:15.074Z,47.00
2023-06-11T03:07:42.004Z,47.20
2023-06-11T03:10:08.830Z,47.20
2023-06-11T03:12:35.558Z,47.30
2023-06-11T03:15:02.534Z,47.40
2023-06-11T03:17:29.217Z,47.60
2023-06-11T03:19:55.868Z,47.70
2023-06-11T03:22:22.547Z,47.80
2023-06-11T03:24:49.248Z,47.90
2023-06-11T03:27:15.973Z,47.90
2023-06-11T03:29:42.622Z,48.00
2023-06-11T03:32:12.033Z,48.20
2023-06-11T03:34:39.885Z,48.20
2023-06-11T03:37:06.674Z,48.30
2023-06-11T03:39:33.336Z,48.40
2023-06-11T03:41:59.987Z,48.50
2023-06-11T03:44:26.652Z,48.50
2023-06-11T03:46:53.353Z,48.60
2023-06-11T03:49:20.081Z,48.70
2023-06-11T03:51:46.765Z,48.80
2023-06-11T03:54:13.430Z,48.90
2023-06-11T03:56:40.257Z,49.00
2023-06-11T03:59:06.985Z,49.10
2023-06-11T04:01:33.686Z,49.10
2023-06-11T04:04:00.478Z,49.20
2023-06-11T04:06:27.314Z,49.30
2023-06-11T04:08:54.028Z,49.30
2023-06-11T04:11:20.750Z,49.40
2023-06-11T04:13:47.403Z,49.40
2023-06-11T04:16:14.129Z,49.50
2023-06-11T04:18:40.774Z,49.60
2023-06-11T04:21:07.460Z,49.70
2023-06-11T04:23:34.195Z,49.80
2023-06-11T04:26:01.001Z,49.80
2023-06-11T04:28:27.690Z,49.90
2023-06-11T04:30:54.482Z,49.90
2023-06-11T04:33:21.181Z,50.00
2023-06-11T04:35:47.859Z,50.00
2023-06-11T04:38:14.567Z,50.10
2023-06-11T04:40:41.258Z,50.20
2023-06-11T04:43:07.994Z,50.20
2023-06-11T04:45:34.724Z,50.20
2023-06-11T04:48:01.441Z,50.20
2023-06-11T04:50:28.355Z,50.30
2023-06-11T04:52:55.071Z,50.30
2023-06-11T04:55:22.041Z,50.30
2023-06-11T04:57:48.701Z,50.30
2023-06-11T05:00:15.876Z,50.40
2023-06-11T05:02:44.924Z,50.50
2023-06-11T05:05:12.557Z,50.60
2023-06-11T05:07:39.506Z,50.50
2023-06-11T05:10:06.620Z,50.60
2023-06-11T05:12:33.283Z,50.60
2023-06-11T05:14:59.961Z,50.60
2023-06-11T05:17:26.653Z,50.60
2023-06-11T05:19:53.423Z,50.60
2023-06-11T05:22:20.082Z,50.60
2023-06-11T05:24:46.720Z,50.60
2023-06-11T05:27:13.390Z,50.60
2023-06-11T05:29:40.771Z,50.60
2023-06-11T05:32:08.744Z,50.50
2023-06-11T05:34:35.512Z,50.50
2023-06-11T05:37:02.212Z,50.40
2023-06-11T05:39:28.897Z,50.50
2023-06-11T05:41:55.560Z,50.50
2023-06-11T05:44:22.220Z,50.50
2023-06-11T05:46:49.046Z,50.40
2023-06-11T05:49:15.765Z,50.50
2023-06-11T05:51:42.444Z,50.40
2023-06-11T05:54:09.143Z,50.40
2023-06-11T05:56:35.828Z,50.30
2023-06-11T05:59:02.498Z,50.30
2023-06-11T06:01:29.398Z,50.30
2023-06-11T06:03:56.260Z,50.30
2023-06-11T06:06:23.103Z,50.20
2023-06-11T06:08:49.758Z,50.10
2023-06-11T06:11:16.410Z,50.00
2023-06-11T06:13:44.115Z,50.00
2023-06-11T06:16:10.828Z,50.00
2023-06-11T06:18:37.574Z,50.00
2023-06-11T06:21:04.361Z,50.00
2023-06-11T06:23:31.034Z,50.00
2023-06-11T06:25:57.752Z,50.10
2023-06-11T06:28:24.410Z,50.10
2023-06-11T06:30:51.275Z,50.10
2023-06-11T06:33:18.202Z,50.10
2023-06-11T06:35:44.975Z,50.00
2023-06-11T06:38:11.744Z,49.90
2023-06-11T06:40:38.464Z,49.80
2023-06-11T06:43:05.084Z,49.70
2023-06-11T06:45:31.726Z,49.50
2023-06-11T06:47:58.542Z,49.30
2023-06-11T06:50:25.311Z,49.20
2023-06-11T06:52:51.984Z,49.10
2023-06-11T06:55:18.684Z,49.00
2023-06-11T06:57:45.351Z,49.10
2023-06-11T07:00:12.846Z,49.10
2023-06-11T07:02:39.778Z,49.00
2023-06-11T07:05:06.564Z,48.90
2023-06-11T07:07:33.236Z,48.90
2023-06-11T07:09:59.916Z,48.70
2023-06-11T07:12:26.800Z,48.30
2023-06-11T07:14:53.505Z,48.00
2023-06-11T07:17:20.254Z,47.40
2023-06-11T07:19:46.946Z,46.70
2023-06-11T07:22:13.656Z,46.10
2023-06-11T07:24:40.330Z,45.60
2023-06-11T07:27:07.505Z,45.30
2023-06-11T07:29:34.174Z,44.70
2023-06-11T07:32:00.830Z,44.20
2023-06-11T07:34:27.528Z,43.70
2023-06-11T07:36:54.175Z,43.40
2023-06-11T07:39:20.952Z,43.00
2023-06-11T07:41:47.665Z,42.60
2023-06-11T07:44:14.311Z,42.40
2023-06-11T07:46:41.062Z,42.10
2023-06-11T07:49:07.788Z,41.70
2023-06-11T07:51:34.462Z,41.30
2023-06-11T07:54:01.184Z,40.70
2023-06-11T07:56:27.938Z,40.40
2023-06-11T07:58:54.903Z,40.00
2023-06-11T08:01:24.744Z,39.80
2023-06-11T08:03:51.380Z,39.50
2023-06-11T08:06:18.246Z,39.30
2023-06-11T08:08:44.876Z,39.00
2023-06-11T08:11:11.559Z,38.60
2023-06-11T08:13:38.215Z,38.50
2023-06-11T08:16:05.257Z,38.20
2023-06-11T08:18:31.894Z,37.90
2023-06-11T08:20:58.616Z,37.60
2023-06-11T08:23:25.564Z,37.50
2023-06-11T08:25:52.221Z,37.10
2023-06-11T08:28:19.292Z,36.90
2023-06-11T08:30:45.946Z,36.90
2023-06-11T08:33:13.029Z,36.70
2023-06-11T08:35:39.742Z,36.50
2023-06-11T08:38:06.433Z,36.40
2023-06-11T08:40:33.073Z,36.30
2023-06-11T08:42:59.709Z,36.00
2023-06-11T08:45:26.354Z,35.60
2023-06-11T08:47:53.104Z,35.30
2023-06-11T08:50:23.261Z,35.20
2023-06-11T08:52:53.177Z,35.00
2023-06-11T08:55:19.808Z,35.00
2023-06-11T08:57:46.467Z,34.80
2023-06-11T09:00:13.928Z,34.50
2023-06-11T09:02:40.864Z,34.20
2023-06-11T09:05:08.196Z,33.90
2023-06-11T09:07:37.318Z,33.60
2023-06-11T09:10:08.451Z,33.30
2023-06-11T09:12:35.355Z,33.00
2023-06-11T09:15:02.120Z,32.90
2023-06-11T09:17:46.954Z,32.80
2023-06-11T09:20:15.551Z,31.80
2023-06-11T09:22:42.708Z,32.40
2023-06-11T09:25:10.701Z,32.00
2023-06-11T09:27:38.207Z,32.40
2023-06-11T09:30:18.615Z,32.20
2023-06-11T09:32:47.585Z,31.70
2023-06-11T09:35:16.221Z,31.80
2023-06-11T09:37:46.572Z,31.70
2023-06-11T09:40:15.844Z,31.40
2023-06-11T09:42:44.573Z,31.20
2023-06-11T09:45:14.041Z,30.90
2023-06-11T09:47:40.793Z,30.40
2023-06-11T09:50:08.145Z,31.00
2023-06-11T09:52:35.900Z,30.80
2023-06-11T09:55:02.592Z,30.50
2023-06-11T09:57:29.254Z,30.40
2023-06-11T09:59:55.944Z,30.20
2023-06-11T10:02:27.072Z,30.20
2023-06-11T10:04:56.013Z,30.30
2023-06-11T10:07:23.137Z,30.10
2023-06-11T10:09:51.295Z,29.90
2023-06-11T10:12:17.983Z,29.70
2023-06-11T10:14:51.528Z,29.50
2023-06-11T10:17:18.240Z,28.90
2023-06-11T10:19:49.069Z,29.20
2023-06-11T10:22:45.321Z,29.10
2023-06-11T10:25:17.743Z,29.00
2023-06-11T10:27:44.452Z,28.70
2023-06-11T10:30:11.712Z,28.50
2023-06-11T10:32:48.427Z,28.20
2023-06-11T10:35:24.118Z,27.50
2023-06-11T10:38:05.405Z,27.70
2023-06-11T10:40:38.490Z,27.70
2023-06-11T10:43:29.737Z,27.50
2023-06-11T10:46:06.384Z,27.40
2023-06-11T10:48:33.128Z,27.30
2023-06-11T10:51:13.988Z,27.50
2023-06-11T10:53:41.836Z,26.90
2023-06-11T10:56:23.577Z,27.40
2023-06-11T10:58:50.828Z,27.30
2023-06-11T11:01:23.672Z,27.40
2023-06-11T11:03:50.993Z,27.00
2023-06-11T11:06:27.356Z,26.80
2023-06-11T11:08:54.864Z,26.40
2023-06-11T11:11:21.607Z,26.50
2023-06-11T11:13:50.730Z,26.60
2023-06-11T11:16:20.842Z,26.50
2023-06-11T11:18:50.922Z,26.20
2023-06-11T11:21:18.678Z,26.30
2023-06-11T11:23:49.174Z,26.70
2023-06-11T11:26:17.657Z,26.60
2023-06-11T11:28:44.404Z,26.90
2023-06-11T11:31:11.191Z,27.10
2023-06-11T11:33:37.880Z,27.30
2023-06-11T11:36:04.868Z,27.60
2023-06-11T11:38:35.998Z,27.70
2023-06-11T11:41:05.432Z,27.60
2023-06-11T11:43:41.827Z,27.50
2023-06-11T11:46:18.373Z,27.00
2023-06-11T11:48:48.346Z,27.00
2023-06-11T11:51:15.101Z,26.80
2023-06-11T11:53:42.052Z,26.40
2023-06-11T11:56:08.889Z,26.00
2023-06-11T11:58:36.476Z,26.00
2023-06-11T12:01:03.138Z,26.00
2023-06-11T12:03:30.050Z,26.00
2023-06-11T12:06:06.781Z,26.10
2023-06-11T12:08:34.340Z,26.10
2023-06-11T12:11:01.641Z,26.10
2023-06-11T12:13:28.315Z,25.70
2023-06-11T12:15:55.046Z,25.30
2023-06-11T12:18:21.836Z,25.10
2023-06-11T12:20:48.563Z,25.20
2023-06-11T12:23:15.270Z,25.00
2023-06-11T12:25:41.995Z,24.80
2023-06-11T12:28:08.651Z,24.50
2023-06-11T12:30:35.348Z,24.30
2023-06-11T12:33:02.153Z,24.20
2023-06-11T12:35:29.723Z,24.30
2023-06-11T12:37:56.380Z,24.60
2023-06-11T12:40:27.144Z,24.60
2023-06-11T12:42:56.299Z,24.70
2023-06-11T12:45:29.373Z,24.50
2023-06-11T12:47:58.841Z,24.40
2023-06-11T12:50:27.254Z,24.40
2023-06-11T12:52:58.443Z,24.60
2023-06-11T12:55:26.190Z,24.60
2023-06-11T12:57:52.916Z,24.90
2023-06-11T13:00:19.884Z,25.20
2023-06-11T13:02:46.568Z,25.30
2023-06-11T13:05:17.428Z,25.20
2023-06-11T13:07:51.240Z,25.10
2023-06-11T13:10:17.938Z,25.00
2023-06-11T13:12:47.263Z,24.70
2023-06-11T13:15:14.083Z,24.40
2023-06-11T13:17:43.460Z,24.30
2023-06-11T13:20:13.842Z,24.50
2023-06-11T13:22:41.265Z,24.50
2023-06-11T13:25:10.305Z,24.70
2023-06-11T13:27:37.132Z,24.50
2023-06-11T13:30:08.750Z,24.50
2023-06-11T13:32:41.708Z,24.40
2023-06-11T13:35:08.782Z,24.20
2023-06-11T13:37:35.537Z,24.20
2023-06-11T13:40:02.339Z,24.10
2023-06-11T13:42:29.096Z,24.10
2023-06-11T13:44:55.877Z,24.00
2023-06-11T13:47:22.706Z,23.90
2023-06-11T13:49:49.472Z,23.90
2023-06-11T13:52:16.183Z,23.90
2023-06-11T13:54:42.844Z,23.70
2023-06-11T13:57:09.520Z,23.50
2023-06-11T13:59:36.238Z,23.60
2023-06-11T14:02:03.000Z,23.60
2023-06-11T14:04:29.790Z,23.80
2023-06-11T14:06:56.472Z,23.80
2023-06-11T14:09:23.175Z,23.90
2023-06-11T14:11:49.814Z,23.90
2023-06-11T14:14:16.476Z,23.80
2023-06-11T14:16:43.190Z,23.80
2023-06-11T14:19:09.918Z,23.70
2023-06-11T14:21:36.849Z,23.70
2023-06-11T14:24:04.177Z,23.50
2023-06-11T14:26:31.028Z,23.50
2023-06-11T14:28:57.758Z,23.30
2023-06-11T14:31:24.445Z,23.40
2023-06-11T14:33:51.222Z,23.50
2023-06-11T14:36:17.890Z,23.60
2023-06-11T14:38:44.627Z,23.80
2023-06-11T14:41:11.306Z,23.90
2023-06-11T14:43:37.988Z,23.80
2023-06-11T14:46:04.669Z,23.80
2023-06-11T14:48:31.325Z,23.70
2023-06-11T14:50:58.036Z,23.80
2023-06-11T14:53:24.708Z,23.80
2023-06-11T14:55:51.364Z,23.80
2023-06-11T14:58:18.047Z,24.00
2023-06-11T15:00:44.773Z,24.10
2023-06-11T15:03:13.120Z,24.10
2023-06-11T15:05:41.167Z,24.00
2023-06-11T15:08:07.868Z,24.10
2023-06-11T15:10:34.525Z,24.10
2023-06-11T15:13:01.167Z,24.20
2023-06-11T15:15:27.835Z,24.30
2023-06-11T15:17:54.516Z,24.40
2023-06-11T15:20:21.236Z,24.50
2023-06-11T15:22:47.925Z,24.40
2023-06-11T15:25:14.576Z,24.40
2023-06-11T15:27:41.253Z,24.30
2023-06-11T15:30:08.348Z,24.30
2023-06-11T15:32:35.141Z,24.30
2023-06-11T15:35:02.414Z,24.30
2023-06-11T15:37:29.089Z,24.20
2023-06-11T15:39:55.785Z,24.30
2023-06-11T15:42:22.456Z,24.40
2023-06-11T15:44:49.187Z,24.30
2023-06-11T15:47:15.955Z,24.20
2023-06-11T15:49:42.674Z,24.00
2023-06-11T15:52:09.382Z,24.00
2023-06-11T15:54:36.097Z,24.10
2023-06-11T15:57:02.869Z,24.20
2023-06-11T15:59:29.529Z,24.50
2023-06-11T16:01:56.339Z,24.60
2023-06-11T16:04:23.316Z,24.60
2023-06-11T16:06:50.462Z,24.70
2023-06-11T16:09:17.111Z,24.70
2023-06-11T16:11:43.762Z,24.80
2023-06-11T16:14:10.413Z,25.00
2023-06-11T16:16:37.192Z,25.10
2023-06-11T16:19:04.024Z,25.20
2023-06-11T16:21:30.742Z,25.40
2023-06-11T16:23:57.482Z,25.60
2023-06-11T16:26:24.271Z,25.80
2023-06-11T16:28:50.966Z,26.00
2023-06-11T16:31:17.770Z,26.00
2023-06-11T16:33:57.500Z,26.20
2023-06-11T16:36:26.364Z,26.20
2023-06-11T16:38:53.039Z,26.40
2023-06-11T16:41:19.882Z,26.40
2023-06-11T16:43:46.596Z,26.50
2023-06-11T16:46:13.321Z,26.70
2023-06-11T16:48:53.106Z,26.70
2023-06-11T16:51:19.997Z,26.80
2023-06-11T16:53:46.723Z,26.90
2023-06-11T16:56:13.489Z,26.90
2023-06-11T16:58:40.189Z,27.00
2023-06-11T17:01:06.984Z,27.00
2023-06-11T17:03:34.652Z,27.00
2023-06-11T17:06:01.915Z,27.10
2023-06-11T17:08:28.656Z,27.20
2023-06-11T17:10:55.377Z,27.30
2023-06-11T17:13:22.053Z,27.50
2023-06-11T17:15:48.724Z,27.60
2023-06-11T17:18:15.580Z,27.80
2023-06-11T17:20:44.356Z,27.90
2023-06-11T17:23:12.445Z,27.90
2023-06-11T17:25:39.251Z,28.00
2023-06-11T17:28:05.919Z,28.00
2023-06-11T17:30:32.587Z,28.00
2023-06-11T17:32:59.519Z,28.10
2023-06-11T17:35:26.398Z,28.10
2023-06-11T17:37:53.053Z,28.20
2023-06-11T17:40:20.049Z,28.20
2023-06-11T17:42:46.930Z,28.20
2023-06-11T17:45:13.710Z,28.20
2023-06-11T17:47:40.479Z,28.20
2023-06-11T17:50:07.703Z,28.20
2023-06-11T17:52:34.375Z,28.30
2023-06-11T17:55:01.057Z,28.30
2023-06-11T17:57:27.702Z,28.40
2023-06-11T17:59:54.354Z,28.40
2023-06-11T18:02:21.153Z,28.40
2023-06-11T18:04:47.950Z,28.40
2023-06-11T18:07:14.612Z,28.40
2023-06-11T18:09:41.323Z,28.30
2023-06-11T18:12:08.577Z,28.40
2023-06-11T18:14:35.302Z,28.40
2023-06-11T18:17:02.009Z,28.40
2023-06-11T18:19:28.709Z,28.50
2023-06-11T18:21:55.415Z,28.50
2023-06-11T18:24:22.201Z,28.40
2023-06-11T18:26:48.963Z,28.40
2023-06-11T18:29:15.702Z,28.40
2023-06-11T18:31:42.401Z,28.50
2023-06-11T18:34:09.037Z,28.40
2023-06-11T18:36:35.727Z,28.40
2023-06-11T18:39:02.463Z,28.30
2023-06-11T18:41:30.821Z,28.40
2023-06-11T18:43:57.884Z,28.40
2023-06-11T18:46:24.696Z,28.40
2023-06-11T18:48:51.543Z,28.40
2023-06-11T18:51:18.248Z,28.40
2023-06-11T18:53:44.919Z,28.50
2023-06-11T18:56:11.588Z,28.50
2023-06-11T18:58:38.359Z,28.50
2023-06-11T19:01:05.214Z,28.50
2023-06-11T19:03:32.615Z,28.50
2023-06-11T19:06:00.743Z,28.50
2023-06-11T19:08:27.440Z,28.60
2023-06-11T19:10:54.138Z,28.60
2023-06-11T19:13:20.871Z,28.70
2023-06-11T19:15:47.690Z,28.80
2023-06-11T19:18:14.475Z,28.90
2023-06-11T19:20:41.635Z,28.90
2023-06-11T19:23:08.639Z,28.90
2023-06-11T19:25:35.382Z,29.00
2023-06-11T19:28:02.258Z,29.00
2023-06-11T19:30:28.925Z,29.10
2023-06-11T19:32:55.609Z,29.20
2023-06-11T19:35:22.553Z,29.30
2023-06-11T19:37:49.299Z,29.30
2023-06-11T19:40:16.050Z,29.60
2023-06-11T19:42:42.905Z,29.70
2023-06-11T19:45:09.787Z,29.80
2023-06-11T19:47:39.335Z,30.00
2023-06-11T19:50:06.735Z,30.10
2023-06-11T19:52:33.408Z,30.10
2023-06-11T19:55:00.207Z,30.30
2023-06-11T19:57:27.014Z,30.40
2023-06-11T19:59:53.832Z,30.50
2023-06-11T20:02:20.655Z,30.60
2023-06-11T20:04:47.716Z,30.70
2023-06-11T20:07:17.480Z,30.70
2023-06-11T20:09:44.177Z,30.90
2023-06-11T20:12:10.990Z,31.00
2023-06-11T20:14:37.790Z,31.00
2023-06-11T20:17:05.310Z,31.00
2023-06-11T20:19:32.031Z,31.00
2023-06-11T20:21:58.741Z,31.10
2023-06-11T20:24:25.614Z,31.10
2023-06-11T20:26:53.035Z,31.20
2023-06-11T20:29:19.882Z,31.30
2023-06-11T20:31:46.699Z,31.30
2023-06-11T20:34:13.434Z,31.30
2023-06-11T20:36:40.112Z,31.30
2023-06-11T20:39:06.760Z,31.40
2023-06-11T20:41:34.009Z,31.40
2023-06-11T20:44:00.714Z,31.50
2023-06-11T20:46:29.499Z,31.40
2023-06-11T20:48:56.668Z,31.50
2023-06-11T20:51:23.320Z,31.70
2023-06-11T20:53:49.995Z,31.50
2023-06-11T20:56:16.826Z,31.60
2023-06-11T20:58:43.523Z,31.60
2023-06-11T21:01:10.266Z,31.70
2023-06-11T21:03:37.011Z,31.80
2023-06-11T21:06:03.713Z,31.80
2023-06-11T21:08:30.446Z,31.80
2023-06-11T21:10:57.111Z,31.90
2023-06-11T21:13:23.792Z,31.90
2023-06-11T21:15:50.577Z,32.00
2023-06-11T21:18:17.445Z,32.10
2023-06-11T21:20:44.237Z,32.20
2023-06-11T21:23:10.958Z,32.30
2023-06-11T21:25:37.614Z,32.30
2023-06-11T21:28:04.403Z,32.40
2023-06-11T21:30:31.076Z,32.50
2023-06-11T21:33:03.906Z,32.50
2023-06-11T21:35:40.875Z,32.70
2023-06-11T21:38:07.605Z,32.60
2023-06-11T21:40:34.274Z,32.70
2023-06-11T21:43:00.910Z,32.80
2023-06-11T21:45:29.796Z,32.80
2023-06-11T21:47:56.887Z,32.90
2023-06-11T21:50:23.613Z,32.90
2023-06-11T21:52:50.255Z,33.00
2023-06-11T21:55:16.973Z,33.10
2023-06-11T21:57:43.637Z,33.30
2023-06-11T22:00:13.841Z,33.40
2023-06-11T22:02:44.031Z,33.50
2023-06-11T22:05:10.936Z,33.60
2023-06-11T22:07:37.763Z,33.70
2023-06-11T22:10:04.860Z,33.90
2023-06-11T22:12:31.579Z,33.90
2023-06-11T22:14:58.273Z,34.00
2023-06-11T22:17:25.037Z,34.10
2023-06-11T22:19:51.724Z,34.20
2023-06-11T22:22:18.460Z,34.30
2023-06-11T22:24:45.280Z,34.40
2023-06-11T22:27:12.190Z,34.60
2023-06-11T22:29:39.008Z,34.70
2023-06-11T22:32:06.142Z,34.90
2023-06-11T22:34:32.852Z,35.00
2023-06-11T22:36:59.569Z,35.10
2023-06-11T22:39:26.293Z,35.20
2023-06-11T22:41:53.060Z,35.30
2023-06-11T22:44:19.971Z,35.50
2023-06-11T22:46:46.715Z,35.60
2023-06-11T22:49:13.466Z,35.70
2023-06-11T22:51:40.327Z,35.70
2023-06-11T22:54:07.075Z,35.80
2023-06-11T22:56:33.892Z,35.90
2023-06-11T22:59:00.532Z,35.90
2023-06-11T23:01:27.224Z,35.90
2023-06-11T23:03:54.300Z,35.90
2023-06-11T23:06:21.104Z,35.90
2023-06-11T23:08:47.833Z,36.00
2023-06-11T23:11:14.569Z,36.10
2023-06-11T23:13:41.388Z,36.10
2023-06-11T23:16:08.168Z,36.10
2023-06-11T23:18:34.906Z,36.20
2023-06-11T23:21:04.236Z,36.20
2023-06-11T23:23:31.383Z,36.20
2023-06-11T23:25:58.069Z,36.40
2023-06-11T23:28:24.761Z,36.40
2023-06-11T23:30:52.184Z,36.60
2023-06-11T23:33:19.126Z,36.70
2023-06-11T23:35:45.817Z,36.70
2023-06-11T23:38:15.297Z,36.80
2023-06-11T23:40:42.011Z,36.90
2023-06-11T23:43:08.703Z,36.90
2023-06-11T23:45:37.458Z,36.90
2023-06-11T23:48:04.240Z,37.00
